createdAt,value
2023-02-22T00:00:59.871Z,3.33
2023-02-22T00:03:32.431Z,3.41
2023-02-22T00:06:05.216Z,3.43
2023-02-22T00:08:36.626Z,3.45
2023-02-22T00:11:09.079Z,3.35
2023-02-22T00:13:37.874Z,3.12
2023-02-22T00:16:05.592Z,3.19
2023-02-22T00:18:32.687Z,3.33
2023-02-22T00:21:01.422Z,3.43
2023-02-22T00:23:31.114Z,3.42
2023-02-22T00:26:00.180Z,3.80
2023-02-22T00:28:27.955Z,3.88
2023-02-22T00:30:55.103Z,4.18
2023-02-22T00:33:23.254Z,4.25
2023-02-22T00:35:50.487Z,4.14
2023-02-22T00:38:19.534Z,4.31
2023-02-22T00:40:46.623Z,4.21
2023-02-22T00:43:14.365Z,4.15
2023-02-22T00:45:42.440Z,4.14
2023-02-22T00:48:10.472Z,3.89
2023-02-22T00:50:37.990Z,3.88
2023-02-22T00:53:07.346Z,3.77
2023-02-22T00:55:36.734Z,3.83
2023-02-22T00:58:05.270Z,3.91
2023-02-22T01:00:39.932Z,4.00
2023-02-22T01:03:10.550Z,3.84
2023-02-22T01:05:38.816Z,3.75
2023-02-22T01:08:08.549Z,3.49
2023-02-22T01:10:37.043Z,3.47
2023-02-22T01:13:08.897Z,3.42
2023-02-22T01:15:39.327Z,3.61
2023-02-22T01:18:08.020Z,3.64
2023-02-22T01:20:35.266Z,3.67
2023-02-22T01:23:07.105Z,3.72
2023-02-22T01:25:35.057Z,3.66
2023-02-22T01:28:03.574Z,3.57
2023-02-22T01:30:34.298Z,3.68
2023-02-22T01:33:04.025Z,3.74
2023-02-22T01:35:35.010Z,3.75
2023-02-22T01:38:02.327Z,3.71
2023-02-22T01:40:35.908Z,3.71
2023-02-22T01:43:15.576Z,3.67
2023-02-22T01:46:00.761Z,3.69
2023-02-22T01:48:45.877Z,3.71
2023-02-22T01:51:28.287Z,3.72
2023-02-22T01:53:59.247Z,3.76
2023-02-22T01:56:29.427Z,3.77
2023-02-22T01:59:06.899Z,3.72
2023-02-22T02:01:36.937Z,3.49
2023-02-22T02:04:10.624Z,3.33
2023-02-22T02:06:38.843Z,3.44
2023-02-22T02:09:17.788Z,3.50
2023-02-22T02:11:46.320Z,3.46
2023-02-22T02:14:14.331Z,3.41
2023-02-22T02:16:45.884Z,3.45
2023-02-22T02:19:46.239Z,3.68
2023-02-22T02:22:47.126Z,3.50
2023-02-22T02:25:54.679Z,3.51
2023-02-22T02:28:51.087Z,3.47
2023-02-22T02:31:54.994Z,3.44
2023-02-22T02:34:35.990Z,3.43
2023-02-22T02:37:15.648Z,3.32
2023-02-22T02:39:57.515Z,3.32
2023-02-22T02:42:34.357Z,3.21
2023-02-22T02:45:18.573Z,3.25
2023-02-22T02:47:53.490Z,3.21
2023-02-22T02:50:25.594Z,3.26
2023-02-22T02:52:55.801Z,3.25
2023-02-22T02:55:23.525Z,3.19
2023-02-22T02:57:50.485Z,3.24
2023-02-22T03:00:24.977Z,3.19
2023-02-22T03:03:06.252Z,3.12
2023-02-22T03:06:40.439Z,3.07
2023-02-22T03:09:21.522Z,3.02
2023-02-22T03:12:08.361Z,3.06
2023-02-22T03:14:38.676Z,2.94
2023-02-22T03:17:19.249Z,3.01
2023-02-22T03:19:52.580Z,2.98
2023-02-22T03:22:48.112Z,2.98
2023-02-22T03:25:34.205Z,3.09
2023-02-22T03:28:07.622Z,3.13
2023-02-22T03:30:50.969Z,2.81
2023-02-22T03:33:44.734Z,2.88
2023-02-22T03:36:21.115Z,3.01
2023-02-22T03:38:50.310Z,2.73
2023-02-22T03:41:25.176Z,2.77
2023-02-22T03:44:14.240Z,2.89
2023-02-22T03:46:42.894Z,2.72
2023-02-22T03:49:22.224Z,2.74
2023-02-22T03:51:49.212Z,2.75
2023-02-22T03:54:16.739Z,2.65
2023-02-22T03:57:24.972Z,2.54
2023-02-22T03:59:51.880Z,2.57
2023-02-22T04:02:19.560Z,2.64
2023-02-22T04:04:47.607Z,2.60
2023-02-22T04:07:14.988Z,2.57
2023-02-22T04:09:41.969Z,2.48
2023-02-22T04:12:09.063Z,2.66
2023-02-22T04:14:36.092Z,2.66
2023-02-22T04:17:03.065Z,2.57
2023-02-22T04:19:30.064Z,2.38
2023-02-22T04:21:57.065Z,1.96
2023-02-22T04:24:24.184Z,2.13
2023-02-22T04:26:51.109Z,2.00
2023-02-22T04:29:18.059Z,2.00
2023-02-22T04:31:45.159Z,2.13
2023-02-22T04:34:12.369Z,2.17
2023-02-22T04:36:39.426Z,2.20
2023-02-22T04:39:06.364Z,2.01
2023-02-22T04:41:34.544Z,2.06
2023-02-22T04:44:01.535Z,2.21
2023-02-22T04:46:28.700Z,2.06
2023-02-22T04:48:55.722Z,2.02
2023-02-22T04:51:22.678Z,1.98
2023-02-22T04:53:49.747Z,1.95
2023-02-22T04:56:20.351Z,2.06
2023-02-22T04:58:47.924Z,2.13
2023-02-22T05:01:16.893Z,2.06
2023-02-22T05:03:44.361Z,1.87
2023-02-22T05:06:12.492Z,1.98
2023-02-22T05:08:39.476Z,1.97
2023-02-22T05:11:06.881Z,1.84
2023-02-22T05:13:33.793Z,1.83
2023-02-22T05:16:00.899Z,2.11
2023-02-22T05:18:28.026Z,2.04
2023-02-22T05:20:55.008Z,2.03
2023-02-22T05:23:21.931Z,2.04
2023-02-22T05:25:48.997Z,1.98
2023-02-22T05:28:16.761Z,1.83
2023-02-22T05:30:43.843Z,1.87
2023-02-22T05:33:11.373Z,1.95
2023-02-22T05:35:38.298Z,1.91
2023-02-22T05:38:06.839Z,1.78
2023-02-22T05:40:35.028Z,1.96
2023-02-22T05:43:02.889Z,1.81
2023-02-22T05:45:38.749Z,1.93
2023-02-22T05:48:15.949Z,1.76
2023-02-22T05:50:45.659Z,1.76
2023-02-22T05:53:12.641Z,1.76
2023-02-22T05:55:40.253Z,1.78
2023-02-22T05:58:07.232Z,1.81
2023-02-22T06:00:34.195Z,2.10
2023-02-22T06:03:08.097Z,2.12
2023-02-22T06:05:36.325Z,2.05
2023-02-22T06:08:05.956Z,2.09
2023-02-22T06:10:33.733Z,1.81
2023-02-22T06:13:03.473Z,1.96
2023-02-22T06:15:30.639Z,1.96
2023-02-22T06:17:58.883Z,2.00
2023-02-22T06:20:28.979Z,1.93
2023-02-22T06:22:58.517Z,1.81
2023-02-22T06:25:31.501Z,1.98
2023-02-22T06:28:00.382Z,2.06
2023-02-22T06:30:28.997Z,1.89
2023-02-22T06:32:56.408Z,1.80
2023-02-22T06:35:23.748Z,1.77
2023-02-22T06:37:51.009Z,1.77
2023-02-22T06:40:18.305Z,1.83
2023-02-22T06:42:49.204Z,1.95
2023-02-22T06:45:18.241Z,2.03
2023-02-22T06:47:45.983Z,1.93
2023-02-22T06:52:53.177Z,1.96
2023-02-22T06:55:27.415Z,2.02
2023-02-22T06:57:54.441Z,2.16
2023-02-22T07:00:25.262Z,2.15
2023-02-22T07:02:53.902Z,2.18
2023-02-22T07:05:23.063Z,2.18
2023-02-22T07:07:55.501Z,2.17
2023-02-22T07:10:30.093Z,2.16
2023-02-22T07:12:57.295Z,2.16
2023-02-22T07:15:28.061Z,2.22
2023-02-22T07:17:55.644Z,2.05
2023-02-22T07:20:24.690Z,2.07
2023-02-22T07:22:52.045Z,2.21
2023-02-22T07:25:20.179Z,2.28
2023-02-22T07:27:48.685Z,2.35
2023-02-22T07:30:20.846Z,2.41
2023-02-22T07:32:48.122Z,2.57
2023-02-22T07:35:28.623Z,2.65
2023-02-22T07:37:58.591Z,2.64
2023-02-22T07:40:27.125Z,2.71
2023-02-22T07:43:01.305Z,2.74
2023-02-22T07:45:34.720Z,2.76
2023-02-22T07:48:04.203Z,2.87
2023-02-22T07:50:33.444Z,2.85
2023-02-22T07:53:06.632Z,2.93
2023-02-22T07:55:34.694Z,3.01
2023-02-22T07:58:05.930Z,3.02
2023-02-22T08:00:39.321Z,3.18
2023-02-22T08:03:14.720Z,3.25
2023-02-22T08:05:51.641Z,3.37
2023-02-22T08:08:20.065Z,3.46
2023-02-22T08:10:48.733Z,3.55
2023-02-22T08:13:16.353Z,3.56
2023-02-22T08:15:44.326Z,3.76
2023-02-22T08:18:15.753Z,3.90
2023-02-22T08:20:45.283Z,4.06
2023-02-22T08:23:14.484Z,4.23
2023-02-22T08:25:41.947Z,4.43
2023-02-22T08:28:13.204Z,4.52
2023-02-22T08:30:42.957Z,4.52
2023-02-22T08:33:14.600Z,4.65
2023-02-22T08:35:42.366Z,4.72
2023-02-22T08:38:27.543Z,4.80
2023-02-22T08:40:55.302Z,4.94
2023-02-22T08:43:23.164Z,4.99
2023-02-22T08:45:52.236Z,5.14
2023-02-22T08:48:20.369Z,5.23
2023-02-22T08:50:47.435Z,5.26
2023-02-22T08:53:16.515Z,5.44
2023-02-22T08:55:44.198Z,5.68
2023-02-22T08:58:12.200Z,5.69
2023-02-22T09:00:41.157Z,5.78
2023-02-22T09:03:13.427Z,5.87
2023-02-22T09:05:41.825Z,5.93
2023-02-22T09:08:08.960Z,6.00
2023-02-22T09:10:36.397Z,6.01
2023-02-22T09:13:05.844Z,6.15
2023-02-22T09:15:36.002Z,6.26
2023-02-22T09:18:04.393Z,6.31
2023-02-22T09:20:31.663Z,6.48
2023-02-22T09:22:59.621Z,6.49
2023-02-22T09:25:27.330Z,6.66
2023-02-22T09:27:55.454Z,6.65
2023-02-22T09:30:32.846Z,6.66
2023-02-22T09:33:07.126Z,6.77
2023-02-22T09:35:36.546Z,6.98
2023-02-22T09:38:08.079Z,7.09
2023-02-22T09:40:45.080Z,7.26
2023-02-22T09:43:21.069Z,7.15
2023-02-22T09:46:22.490Z,7.31
2023-02-22T09:49:06.680Z,7.58
2023-02-22T09:51:44.968Z,7.66
2023-02-22T09:54:43.453Z,7.51
2023-02-22T09:57:21.708Z,7.47
2023-02-22T10:00:13.861Z,7.59
2023-02-22T10:03:33.154Z,7.89
2023-02-22T10:06:06.727Z,8.07
2023-02-22T10:08:34.642Z,7.95
2023-02-22T10:11:19.964Z,8.28
2023-02-22T10:14:24.405Z,8.00
2023-02-22T10:17:06.856Z,8.25
2023-02-22T10:19:54.704Z,8.47
2023-02-22T10:22:59.233Z,8.41
2023-02-22T10:25:29.003Z,8.54
2023-02-22T10:28:03.863Z,8.51
2023-02-22T10:30:39.902Z,8.71
2023-02-22T10:33:21.536Z,8.85
2023-02-22T10:35:51.666Z,8.71
2023-02-22T10:38:24.449Z,8.65
2023-02-22T10:41:20.097Z,9.18
2023-02-22T10:43:47.265Z,9.08
2023-02-22T10:46:18.205Z,9.13
2023-02-22T10:48:49.991Z,9.38
2023-02-22T10:51:17.384Z,9.38
2023-02-22T10:53:45.826Z,9.49
2023-02-22T10:56:25.767Z,9.70
2023-02-22T10:59:04.310Z,9.72
2023-02-22T11:01:34.607Z,10.04
2023-02-22T11:04:15.834Z,10.40
2023-02-22T11:07:00.781Z,10.60
2023-02-22T11:09:29.134Z,10.68
2023-02-22T11:12:19.693Z,10.75
2023-02-22T11:14:46.857Z,11.04
2023-02-22T11:17:28.963Z,11.12
2023-02-22T11:19:56.710Z,11.42
2023-02-22T11:22:41.463Z,11.38
2023-02-22T11:25:09.457Z,11.17
2023-02-22T11:27:47.118Z,11.45
2023-02-22T11:30:29.695Z,11.65
2023-02-22T11:33:11.179Z,11.72
2023-02-22T11:35:52.909Z,11.96
2023-02-22T11:38:32.764Z,11.84
2023-02-22T11:41:23.110Z,11.99
2023-02-22T11:43:52.071Z,12.17
2023-02-22T11:46:23.211Z,12.53
2023-02-22T11:49:09.752Z,12.28
2023-02-22T11:51:57.977Z,12.14
2023-02-22T11:54:46.377Z,12.39
2023-02-22T11:57:50.428Z,12.85
2023-02-22T12:00:48.576Z,12.75
2023-02-22T12:03:51.650Z,12.99
2023-02-22T12:06:54.535Z,13.37
2023-02-22T12:09:36.933Z,13.54
2023-02-22T12:12:27.080Z,13.09
2023-02-22T12:15:09.030Z,13.17
2023-02-22T12:18:29.039Z,13.31
2023-02-22T12:21:01.758Z,13.38
2023-02-22T12:23:46.405Z,13.27
2023-02-22T12:26:53.801Z,13.66
2023-02-22T12:29:47.510Z,14.06
2023-02-22T12:32:48.979Z,14.08
2023-02-22T12:35:54.089Z,14.15
2023-02-22T12:38:46.659Z,14.44
2023-02-22T12:41:29.978Z,14.33
2023-02-22T12:44:14.484Z,14.42
2023-02-22T12:46:53.689Z,14.72
2023-02-22T12:49:38.951Z,14.60
2023-02-22T12:52:25.979Z,14.69
2023-02-22T12:55:06.589Z,14.52
2023-02-22T12:58:16.308Z,14.28
2023-02-22T13:00:57.336Z,14.73
2023-02-22T13:03:39.053Z,14.88
2023-02-22T13:06:42.616Z,14.96
2023-02-22T13:09:33.412Z,15.08
2023-02-22T13:12:21.156Z,15.35
2023-02-22T13:15:14.467Z,15.16
2023-02-22T13:18:02.808Z,15.47
2023-02-22T13:20:42.281Z,15.22
2023-02-22T13:23:31.529Z,15.09
2023-02-22T13:26:11.406Z,15.22
2023-02-22T13:29:05.110Z,15.97
2023-02-22T13:32:10.217Z,15.36
2023-02-22T13:34:56.907Z,15.40
2023-02-22T13:38:19.286Z,14.98
2023-02-22T13:41:31.809Z,14.99
2023-02-22T13:44:33.277Z,14.98
2023-02-22T13:47:44.131Z,15.30
2023-02-22T13:50:29.751Z,15.58
2023-02-22T13:52:59.812Z,15.30
2023-02-22T13:55:34.702Z,15.24
2023-02-22T13:58:11.983Z,15.09
2023-02-22T14:00:42.551Z,14.85
2023-02-22T14:03:16.684Z,14.86
2023-02-22T14:05:46.535Z,14.91
2023-02-22T14:08:19.653Z,15.10
2023-02-22T14:10:56.471Z,15.31
2023-02-22T14:13:55.710Z,15.12
2023-02-22T14:16:34.355Z,15.08
2023-02-22T14:19:09.390Z,14.92
2023-02-22T14:21:36.564Z,14.73
2023-02-22T14:24:12.614Z,15.07
2023-02-22T14:26:41.323Z,14.97
2023-02-22T14:29:08.280Z,14.78
2023-02-22T14:31:43.460Z,15.06
2023-02-22T14:34:13.024Z,15.01
2023-02-22T14:37:08.562Z,14.81
2023-02-22T14:39:46.147Z,14.87
2023-02-22T14:42:24.452Z,15.11
2023-02-22T14:45:05.031Z,15.12
2023-02-22T14:48:04.027Z,14.94
2023-02-22T14:50:52.872Z,14.59
2023-02-22T14:53:44.451Z,14.68
2023-02-22T14:56:25.565Z,14.60
2023-02-22T14:59:08.532Z,14.72
2023-02-22T15:01:53.189Z,14.54
2023-02-22T15:04:31.035Z,14.62
2023-02-22T15:07:01.231Z,14.49
2023-02-22T15:09:34.703Z,14.47
2023-02-22T15:12:05.456Z,14.39
2023-02-22T15:14:39.023Z,14.36
2023-02-22T15:17:18.242Z,14.21
2023-02-22T15:19:48.874Z,14.25
2023-02-22T15:22:26.660Z,14.05
2023-02-22T15:25:03.910Z,13.97
2023-02-22T15:27:37.238Z,13.94
2023-02-22T15:30:09.921Z,13.82
2023-02-22T15:32:50.144Z,13.82
2023-02-22T15:35:26.502Z,13.79
2023-02-22T15:38:18.271Z,13.80
2023-02-22T15:40:45.708Z,13.72
2023-02-22T15:43:20.303Z,13.68
2023-02-22T15:45:47.656Z,13.67
2023-02-22T15:48:15.981Z,13.62
2023-02-22T15:51:13.977Z,13.56
2023-02-22T15:53:51.626Z,13.43
2023-02-22T15:56:31.224Z,13.43
2023-02-22T15:59:12.796Z,13.36
2023-02-22T16:01:46.562Z,13.29
2023-02-22T16:04:27.281Z,13.29
2023-02-22T16:07:16.968Z,13.19
2023-02-22T16:09:50.456Z,13.08
2023-02-22T16:12:28.178Z,13.00
2023-02-22T16:15:00.751Z,12.92
2023-02-22T16:17:37.592Z,12.86
2023-02-22T16:20:14.454Z,12.75
2023-02-22T16:22:49.446Z,12.73
2023-02-22T16:25:19.533Z,12.70
2023-02-22T16:27:52.737Z,12.62
2023-02-22T16:30:25.064Z,12.64
2023-02-22T16:32:55.619Z,12.62
2023-02-22T16:35:29.090Z,12.49
2023-02-22T16:38:02.917Z,12.41
2023-02-22T16:40:47.080Z,12.35
2023-02-22T16:46:11.911Z,12.06
2023-02-22T16:48:46.070Z,11.99
2023-02-22T16:51:27.239Z,11.83
2023-02-22T16:53:56.014Z,11.75
2023-02-22T16:56:31.254Z,11.71
2023-02-22T16:59:06.773Z,11.67
2023-02-22T17:01:35.336Z,11.53
2023-02-22T17:04:02.849Z,11.52
2023-02-22T17:06:31.393Z,11.50
2023-02-22T17:09:04.031Z,11.39
2023-02-22T17:11:31.079Z,11.32
2023-02-22T17:13:58.292Z,11.27
2023-02-22T17:16:25.292Z,11.27
2023-02-22T17:18:52.666Z,11.29
2023-02-22T17:21:19.717Z,11.29
2023-02-22T17:23:47.525Z,11.36
2023-02-22T17:26:17.077Z,11.36
2023-02-22T17:28:44.973Z,11.23
2023-02-22T17:31:22.033Z,11.26
2023-02-22T17:33:51.477Z,11.51
2023-02-22T17:36:19.389Z,11.53
2023-02-22T17:38:46.419Z,11.55
2023-02-22T17:41:13.471Z,11.54
2023-02-22T17:43:40.456Z,11.68
2023-02-22T17:46:08.668Z,11.62
2023-02-22T17:48:36.226Z,11.64
2023-02-22T17:51:10.778Z,11.58
2023-02-22T17:53:39.060Z,11.49
2023-02-22T17:56:20.827Z,11.51
2023-02-22T17:58:55.427Z,11.53
2023-02-22T18:01:41.020Z,11.41
2023-02-22T18:04:17.006Z,11.40
2023-02-22T18:06:44.625Z,11.43
2023-02-22T18:09:12.121Z,11.32
2023-02-22T18:11:39.727Z,11.31
2023-02-22T18:14:10.179Z,11.20
2023-02-22T18:16:39.092Z,11.24
2023-02-22T18:19:06.646Z,11.21
2023-02-22T18:21:33.701Z,11.24
2023-02-22T18:24:00.796Z,11.09
2023-02-22T18:26:28.083Z,11.06
2023-02-22T18:28:57.088Z,11.12
2023-02-22T18:31:24.396Z,11.13
2023-02-22T18:33:53.157Z,11.12
2023-02-22T18:36:23.281Z,11.20
2023-02-22T18:38:54.230Z,11.13
2023-02-22T18:41:27.061Z,11.15
2023-02-22T18:44:00.049Z,11.08
2023-02-22T18:46:27.790Z,11.09
2023-02-22T18:48:56.722Z,11.00
2023-02-22T18:51:24.758Z,10.76
2023-02-22T18:53:56.973Z,10.59
2023-02-22T18:56:29.506Z,10.43
2023-02-22T18:59:02.465Z,10.47
2023-02-22T19:01:31.446Z,10.34
2023-02-22T19:04:00.379Z,10.28
2023-02-22T19:06:27.464Z,10.29
2023-02-22T19:08:54.596Z,10.20
2023-02-22T19:11:24.475Z,10.21
2023-02-22T19:13:56.298Z,10.09
2023-02-22T19:16:26.346Z,10.07
2023-02-22T19:18:57.498Z,10.10
2023-02-22T19:21:28.073Z,9.95
2023-02-22T19:23:56.026Z,10.04
2023-02-22T19:26:28.967Z,10.16
2023-02-22T19:28:58.904Z,10.06
2023-02-22T19:31:31.077Z,9.95
2023-02-22T19:34:06.080Z,9.88
2023-02-22T19:36:33.211Z,10.00
2023-02-22T19:39:03.080Z,9.93
2023-02-22T19:41:31.228Z,9.94
2023-02-22T19:43:59.095Z,9.89
2023-02-22T19:46:26.291Z,9.73
2023-02-22T19:49:16.286Z,9.56
2023-02-22T19:51:53.731Z,9.60
2023-02-22T19:54:22.243Z,9.57
2023-02-22T19:56:51.170Z,9.51
2023-02-22T19:59:23.724Z,9.19
2023-02-22T20:01:54.889Z,9.25
2023-02-22T20:04:23.115Z,9.12
2023-02-22T20:06:54.929Z,9.23
2023-02-22T20:09:47.341Z,9.15
2023-02-22T20:12:14.704Z,8.98
2023-02-22T20:14:43.429Z,8.98
2023-02-22T20:17:10.549Z,9.02
2023-02-22T20:19:41.160Z,9.00
2023-02-22T20:22:08.571Z,9.07
2023-02-22T20:24:35.611Z,9.16
2023-02-22T20:27:02.663Z,9.12
2023-02-22T20:29:29.957Z,9.18
2023-02-22T20:31:59.960Z,9.12
2023-02-22T20:34:31.448Z,9.17
2023-02-22T20:36:59.154Z,9.12
2023-02-22T20:39:26.430Z,8.96
2023-02-22T20:41:54.650Z,9.05
2023-02-22T20:44:22.750Z,9.02
2023-02-22T20:46:49.819Z,9.07
2023-02-22T20:49:20.214Z,9.06
2023-02-22T20:51:49.973Z,9.01
2023-02-22T20:54:17.864Z,9.07
2023-02-22T20:56:46.741Z,8.99
2023-02-22T20:59:17.322Z,8.95
2023-02-22T21:01:44.645Z,8.99
2023-02-22T21:04:12.153Z,9.01
2023-02-22T21:06:40.454Z,9.23
2023-02-22T21:09:15.017Z,9.18
2023-02-22T21:11:42.954Z,9.25
2023-02-22T21:14:16.789Z,9.43
2023-02-22T21:16:46.698Z,9.52
2023-02-22T21:19:25.678Z,9.55
2023-02-22T21:21:58.722Z,9.67
2023-02-22T21:24:28.277Z,9.75
2023-02-22T21:26:58.782Z,9.67
2023-02-22T21:29:26.718Z,9.71
2023-02-22T21:31:54.374Z,9.75
2023-02-22T21:34:22.492Z,9.83
2023-02-22T21:36:50.637Z,9.92
2023-02-22T21:39:20.748Z,10.00
2023-02-22T21:41:51.212Z,10.03
2023-02-22T21:44:19.054Z,9.90
2023-02-22T21:46:49.979Z,9.75
2023-02-22T21:49:17.795Z,9.72
2023-02-22T21:51:45.041Z,9.62
2023-02-22T21:54:13.079Z,9.58
2023-02-22T21:56:42.954Z,9.59
2023-02-22T21:59:23.562Z,9.55
2023-02-22T22:01:56.237Z,9.84
2023-02-22T22:04:30.051Z,10.04
2023-02-22T22:07:00.106Z,10.07
2023-02-22T22:09:37.800Z,10.03
2023-02-22T22:12:05.637Z,9.99
2023-02-22T22:14:34.860Z,10.03
2023-02-22T22:17:05.524Z,10.02
2023-02-22T22:19:39.379Z,10.08
2023-02-22T22:22:07.905Z,9.99
2023-02-22T22:24:35.149Z,9.99
2023-02-22T22:27:06.627Z,9.99
2023-02-22T22:29:34.558Z,9.92
2023-02-22T22:32:02.886Z,9.89
2023-02-22T22:34:30.292Z,9.84
2023-02-22T22:36:58.661Z,9.81
2023-02-22T22:39:26.892Z,9.73
2023-02-22T22:41:54.120Z,9.74
2023-02-22T22:44:24.314Z,9.66
2023-02-22T22:46:54.930Z,9.56
2023-02-22T22:49:24.090Z,9.52
2023-02-22T22:51:51.332Z,9.46
2023-02-22T22:54:18.477Z,9.44
2023-02-22T22:56:45.513Z,9.45
2023-02-22T22:59:13.537Z,9.43
2023-02-22T23:01:45.017Z,9.42
2023-02-22T23:04:18.890Z,9.38
2023-02-22T23:06:51.090Z,9.26
2023-02-22T23:09:30.456Z,9.22
2023-02-22T23:12:24.212Z,9.22
2023-02-22T23:14:52.176Z,9.20
2023-02-22T23:17:31.441Z,9.19
2023-02-22T23:19:58.625Z,9.17
2023-02-22T23:22:25.623Z,9.21
2023-02-22T23:24:52.694Z,9.18
2023-02-22T23:27:19.666Z,9.11
2023-02-22T23:29:47.128Z,8.98
2023-02-22T23:32:14.553Z,8.90
2023-02-22T23:34:41.927Z,8.92
2023-02-22T23:37:10.652Z,9.00
2023-02-22T23:39:38.110Z,9.04
2023-02-22T23:42:05.255Z,9.10
2023-02-22T23:44:32.616Z,9.11
2023-02-22T23:46:59.870Z,9.15
2023-02-22T23:49:38.008Z,9.13
2023-02-22T23:52:08.282Z,9.16
2023-02-22T23:54:40.389Z,9.23
2023-02-22T23:57:08.974Z,9.18
2023-02-22T23:59:37.375Z,9.14
